sensor_id;sensor_type;location;lat;lon;timestamp;temperature;humidity
8994;DHT22;4532;50.886;4.700;2022-11-11T00:01:16;12.00;99.90
8994;DHT22;4532;50.886;4.700;2022-11-11T00:03:45;12.00;99.90
8994;DHT22;4532;50.886;4.700;2022-11-11T00:06:15;12.00;99.90
8994;DHT22;4532;50.886;4.700;2022-11-11T00:08:46;11.90;99.90
8994;DHT22;4532;50.886;4.700;2022-11-11T00:11:17;11.90;99.90
8994;DHT22;4532;50.886;4.700;2022-11-11T00:13:49;11.90;99.90
8994;DHT22;4532;50.886;4.700;2022-11-11T00:16:19;11.90;99.90
8994;DHT22;4532;50.886;4.700;2022-11-11T00:18:53;11.80;99.90
8994;DHT22;4532;50.886;4.700;2022-11-11T00:21:41;11.80;99.90
8994;DHT22;4532;50.886;4.700;2022-11-11T00:27:03;11.70;99.90
8994;DHT22;4532;50.886;4.700;2022-11-11T00:29:31;11.70;99.90
8994;DHT22;4532;50.886;4.700;2022-11-11T00:31:58;11.70;99.90
8994;DHT22;4532;50.886;4.700;2022-11-11T00:34:44;11.60;99.90
8994;DHT22;4532;50.886;4.700;2022-11-11T00:37:34;11.60;99.90
8994;DHT22;4532;50.886;4.700;2022-11-11T00:40:05;11.60;99.90
8994;DHT22;4532;50.886;4.700;2022-11-11T00:42:38;11.50;99.90
8994;DHT22;4532;50.886;4.700;2022-11-11T00:45:09;11.50;99.90
8994;DHT22;4532;50.886;4.700;2022-11-11T00:47:41;11.50;99.90
8994;DHT22;4532;50.886;4.700;2022-11-11T00:50:29;11.50;99.90
8994;DHT22;4532;50.886;4.700;2022-11-11T00:53:22;11.50;99.90
8994;DHT22;4532;50.886;4.700;2022-11-11T00:55:56;11.40;99.90
8994;DHT22;4532;50.886;4.700;2022-11-11T00:58:25;11.40;99.90
8994;DHT22;4532;50.886;4.700;2022-11-11T01:00:57;11.40;99.90
8994;DHT22;4532;50.886;4.700;2022-11-11T01:03:24;11.40;99.90
8994;DHT22;4532;50.886;4.700;2022-11-11T01:05:56;11.40;99.90
8994;DHT22;4532;50.886;4.700;2022-11-11T01:08:29;11.40;99.90
8994;DHT22;4532;50.886;4.700;2022-11-11T01:10:56;11.40;99.90
8994;DHT22;4532;50.886;4.700;2022-11-11T01:13:29;11.40;99.90
8994;DHT22;4532;50.886;4.700;2022-11-11T01:16:05;11.40;99.90
8994;DHT22;4532;50.886;4.700;2022-11-11T01:18:33;11.40;99.90
8994;DHT22;4532;50.886;4.700;2022-11-11T01:21:12;11.40;99.90
8994;DHT22;4532;50.886;4.700;2022-11-11T01:23:43;11.40;99.90
8994;DHT22;4532;50.886;4.700;2022-11-11T01:28:53;11.40;99.90
8994;DHT22;4532;50.886;4.700;2022-11-11T01:31:23;11.40;99.90
8994;DHT22;4532;50.886;4.700;2022-11-11T01:33:50;11.40;99.90
8994;DHT22;4532;50.886;4.700;2022-11-11T01:36:20;11.40;99.90
8994;DHT22;4532;50.886;4.700;2022-11-11T01:38:50;11.50;99.90
8994;DHT22;4532;50.886;4.700;2022-11-11T01:41:26;11.50;99.90
8994;DHT22;4532;50.886;4.700;2022-11-11T01:44:42;11.50;99.90
8994;DHT22;4532;50.886;4.700;2022-11-11T01:47:15;11.50;99.90
8994;DHT22;4532;50.886;4.700;2022-11-11T01:52:39;11.50;99.90
8994;DHT22;4532;50.886;4.700;2022-11-11T01:55:17;11.50;99.90
8994;DHT22;4532;50.886;4.700;2022-11-11T01:57:58;11.50;99.90
8994;DHT22;4532;50.886;4.700;2022-11-11T02:00:30;11.50;99.90
8994;DHT22;4532;50.886;4.700;2022-11-11T02:03:06;11.50;99.90
8994;DHT22;4532;50.886;4.700;2022-11-11T02:05:37;11.50;99.90
8994;DHT22;4532;50.886;4.700;2022-11-11T02:08:14;11.60;99.90
8994;DHT22;4532;50.886;4.700;2022-11-11T02:11:06;11.60;99.90
8994;DHT22;4532;50.886;4.700;2022-11-11T02:13:41;11.60;99.90
8994;DHT22;4532;50.886;4.700;2022-11-11T02:16:29;11.60;99.90
8994;DHT22;4532;50.886;4.700;2022-11-11T02:18:57;11.60;99.90
8994;DHT22;4532;50.886;4.700;2022-11-11T02:21:36;11.60;99.90
8994;DHT22;4532;50.886;4.700;2022-11-11T02:24:10;11.60;99.90
8994;DHT22;4532;50.886;4.700;2022-11-11T02:26:38;11.60;99.90
8994;DHT22;4532;50.886;4.700;2022-11-11T02:29:19;11.60;99.90
8994;DHT22;4532;50.886;4.700;2022-11-11T02:31:47;11.70;99.90
8994;DHT22;4532;50.886;4.700;2022-11-11T02:34:19;11.70;99.90
8994;DHT22;4532;50.886;4.700;2022-11-11T02:36:47;11.70;99.90
8994;DHT22;4532;50.886;4.700;2022-11-11T02:39:14;11.70;99.90
8994;DHT22;4532;50.886;4.700;2022-11-11T02:41:46;11.70;99.90
8994;DHT22;4532;50.886;4.700;2022-11-11T02:44:26;11.70;99.90
8994;DHT22;4532;50.886;4.700;2022-11-11T02:46:54;11.70;99.90
8994;DHT22;4532;50.886;4.700;2022-11-11T02:49:21;11.70;99.90
8994;DHT22;4532;50.886;4.700;2022-11-11T02:51:53;11.70;99.90
8994;DHT22;4532;50.886;4.700;2022-11-11T02:54:20;11.80;99.90
8994;DHT22;4532;50.886;4.700;2022-11-11T02:56:48;11.80;99.90
8994;DHT22;4532;50.886;4.700;2022-11-11T02:59:38;11.80;99.90
8994;DHT22;4532;50.886;4.700;2022-11-11T03:02:08;11.70;99.90
8994;DHT22;4532;50.886;4.700;2022-11-11T03:04:38;11.70;99.90
8994;DHT22;4532;50.886;4.700;2022-11-11T03:07:07;11.80;99.90
8994;DHT22;4532;50.886;4.700;2022-11-11T03:09:35;11.80;99.90
8994;DHT22;4532;50.886;4.700;2022-11-11T03:12:05;11.80;99.90
8994;DHT22;4532;50.886;4.700;2022-11-11T03:14:32;11.80;99.90
8994;DHT22;4532;50.886;4.700;2022-11-11T03:17:02;11.70;99.90
8994;DHT22;4532;50.886;4.700;2022-11-11T03:19:48;11.70;99.90
8994;DHT22;4532;50.886;4.700;2022-11-11T03:22:21;11.70;99.90
8994;DHT22;4532;50.886;4.700;2022-11-11T03:25:09;11.70;99.90
8994;DHT22;4532;50.886;4.700;2022-11-11T03:27:56;11.70;99.90
8994;DHT22;4532;50.886;4.700;2022-11-11T03:30:23;11.70;99.90
8994;DHT22;4532;50.886;4.700;2022-11-11T03:32:50;11.60;99.90
8994;DHT22;4532;50.886;4.700;2022-11-11T03:35:18;11.70;99.90
8994;DHT22;4532;50.886;4.700;2022-11-11T03:37:45;11.60;99.90
8994;DHT22;4532;50.886;4.700;2022-11-11T03:40:33;11.60;99.90
8994;DHT22;4532;50.886;4.700;2022-11-11T03:43:00;11.60;99.90
8994;DHT22;4532;50.886;4.700;2022-11-11T03:45:31;11.60;99.90
8994;DHT22;4532;50.886;4.700;2022-11-11T03:48:00;11.60;99.90
8994;DHT22;4532;50.886;4.700;2022-11-11T03:50:28;11.60;99.90
8994;DHT22;4532;50.886;4.700;2022-11-11T03:52:55;11.60;99.90
8994;DHT22;4532;50.886;4.700;2022-11-11T03:55:22;11.60;99.90
8994;DHT22;4532;50.886;4.700;2022-11-11T03:57:52;11.60;99.90
8994;DHT22;4532;50.886;4.700;2022-11-11T04:00:22;11.60;99.90
8994;DHT22;4532;50.886;4.700;2022-11-11T04:03:04;11.60;99.90
8994;DHT22;4532;50.886;4.700;2022-11-11T04:05:52;11.60;99.90
8994;DHT22;4532;50.886;4.700;2022-11-11T04:08:40;11.50;99.90
8994;DHT22;4532;50.886;4.700;2022-11-11T04:14:07;11.40;99.90
8994;DHT22;4532;50.886;4.700;2022-11-11T04:16:53;11.40;99.90
8994;DHT22;4532;50.886;4.700;2022-11-11T04:19:20;11.30;99.90
8994;DHT22;4532;50.886;4.700;2022-11-11T04:22:10;11.30;99.90
8994;DHT22;4532;50.886;4.700;2022-11-11T04:24:38;11.20;99.90
8994;DHT22;4532;50.886;4.700;2022-11-11T04:27:23;11.20;99.90
8994;DHT22;4532;50.886;4.700;2022-11-11T04:29:55;11.20;99.90
8994;DHT22;4532;50.886;4.700;2022-11-11T04:32:24;11.10;99.90
8994;DHT22;4532;50.886;4.700;2022-11-11T04:35:10;11.10;99.90
8994;DHT22;4532;50.886;4.700;2022-11-11T04:37:47;11.00;99.90
8994;DHT22;4532;50.886;4.700;2022-11-11T04:40:18;11.00;99.90
8994;DHT22;4532;50.886;4.700;2022-11-11T04:43:06;10.90;99.90
8994;DHT22;4532;50.886;4.700;2022-11-11T04:45:33;10.90;99.90
8994;DHT22;4532;50.886;4.700;2022-11-11T04:48:07;10.90;99.90
8994;DHT22;4532;50.886;4.700;2022-11-11T04:50:36;10.90;99.90
8994;DHT22;4532;50.886;4.700;2022-11-11T04:53:07;10.80;99.90
8994;DHT22;4532;50.886;4.700;2022-11-11T04:55:39;10.80;99.90
8994;DHT22;4532;50.886;4.700;2022-11-11T04:58:28;10.80;99.90
8994;DHT22;4532;50.886;4.700;2022-11-11T05:00:55;10.70;99.90
8994;DHT22;4532;50.886;4.700;2022-11-11T05:03:25;10.70;99.90
8994;DHT22;4532;50.886;4.700;2022-11-11T05:05:58;10.70;99.90
8994;DHT22;4532;50.886;4.700;2022-11-11T05:08:46;10.70;99.90
8994;DHT22;4532;50.886;4.700;2022-11-11T05:11:28;10.60;99.90
8994;DHT22;4532;50.886;4.700;2022-11-11T05:14:00;10.60;99.90
8994;DHT22;4532;50.886;4.700;2022-11-11T05:16:50;10.60;99.90
8994;DHT22;4532;50.886;4.700;2022-11-11T05:19:37;10.60;99.90
8994;DHT22;4532;50.886;4.700;2022-11-11T05:22:34;10.50;99.90
8994;DHT22;4532;50.886;4.700;2022-11-11T05:25:10;10.50;99.90
8994;DHT22;4532;50.886;4.700;2022-11-11T05:27:57;10.40;99.90
8994;DHT22;4532;50.886;4.700;2022-11-11T05:30:27;10.40;99.90
8994;DHT22;4532;50.886;4.700;2022-11-11T05:32:56;10.40;99.90
8994;DHT22;4532;50.886;4.700;2022-11-11T05:35:28;10.40;99.90
8994;DHT22;4532;50.886;4.700;2022-11-11T05:38:01;10.40;99.90
8994;DHT22;4532;50.886;4.700;2022-11-11T05:40:48;10.40;99.90
8994;DHT22;4532;50.886;4.700;2022-11-11T05:43:20;10.30;99.90
8994;DHT22;4532;50.886;4.700;2022-11-11T05:45:51;10.30;99.90
8994;DHT22;4532;50.886;4.700;2022-11-11T05:48:18;10.30;99.90
8994;DHT22;4532;50.886;4.700;2022-11-11T05:50:46;10.30;99.90
8994;DHT22;4532;50.886;4.700;2022-11-11T05:53:15;10.20;99.90
8994;DHT22;4532;50.886;4.700;2022-11-11T05:55:53;10.30;99.90
8994;DHT22;4532;50.886;4.700;2022-11-11T05:58:20;10.20;99.90
8994;DHT22;4532;50.886;4.700;2022-11-11T06:00:47;10.20;99.90
8994;DHT22;4532;50.886;4.700;2022-11-11T06:03:17;10.20;99.90
8994;DHT22;4532;50.886;4.700;2022-11-11T06:05:44;10.20;99.90
8994;DHT22;4532;50.886;4.700;2022-11-11T06:08:11;10.10;99.90
8994;DHT22;4532;50.886;4.700;2022-11-11T06:10:40;10.10;99.90
8994;DHT22;4532;50.886;4.700;2022-11-11T06:13:08;10.10;99.90
8994;DHT22;4532;50.886;4.700;2022-11-11T06:15:37;10.00;99.90
8994;DHT22;4532;50.886;4.700;2022-11-11T06:18:06;10.10;99.90
8994;DHT22;4532;50.886;4.700;2022-11-11T06:20:35;10.00;99.90
8994;DHT22;4532;50.886;4.700;2022-11-11T06:23:04;10.00;99.90
8994;DHT22;4532;50.886;4.700;2022-11-11T06:25:32;10.00;99.90
8994;DHT22;4532;50.886;4.700;2022-11-11T06:28:21;10.00;99.90
8994;DHT22;4532;50.886;4.700;2022-11-11T06:30:51;9.90;99.90
8994;DHT22;4532;50.886;4.700;2022-11-11T06:33:20;9.90;99.90
8994;DHT22;4532;50.886;4.700;2022-11-11T06:35:48;9.90;99.90
8994;DHT22;4532;50.886;4.700;2022-11-11T06:38:22;9.90;99.90
8994;DHT22;4532;50.886;4.700;2022-11-11T06:40:49;9.90;99.90
8994;DHT22;4532;50.886;4.700;2022-11-11T06:43:17;9.90;99.90
8994;DHT22;4532;50.886;4.700;2022-11-11T06:45:50;9.90;99.90
8994;DHT22;4532;50.886;4.700;2022-11-11T06:48:17;9.80;99.90
8994;DHT22;4532;50.886;4.700;2022-11-11T06:50:47;9.80;99.90
8994;DHT22;4532;50.886;4.700;2022-11-11T06:53:16;9.80;99.90
8994;DHT22;4532;50.886;4.700;2022-11-11T06:55:43;9.80;99.90
8994;DHT22;4532;50.886;4.700;2022-11-11T06:58:18;9.70;99.90
8994;DHT22;4532;50.886;4.700;2022-11-11T07:00:51;9.70;99.90
8994;DHT22;4532;50.886;4.700;2022-11-11T07:03:20;9.70;99.90
8994;DHT22;4532;50.886;4.700;2022-11-11T07:05:51;9.70;99.90
8994;DHT22;4532;50.886;4.700;2022-11-11T07:08:25;9.70;99.90
8994;DHT22;4532;50.886;4.700;2022-11-11T07:10:53;9.60;99.90
8994;DHT22;4532;50.886;4.700;2022-11-11T07:13:24;9.70;99.90
8994;DHT22;4532;50.886;4.700;2022-11-11T07:15:56;9.60;99.90
8994;DHT22;4532;50.886;4.700;2022-11-11T07:18:23;9.70;99.90
8994;DHT22;4532;50.886;4.700;2022-11-11T07:20:51;9.60;99.90
8994;DHT22;4532;50.886;4.700;2022-11-11T07:23:20;9.60;99.90
8994;DHT22;4532;50.886;4.700;2022-11-11T07:25:47;9.60;99.90
8994;DHT22;4532;50.886;4.700;2022-11-11T07:28:16;9.60;99.90
8994;DHT22;4532;50.886;4.700;2022-11-11T07:30:46;9.60;99.90
8994;DHT22;4532;50.886;4.700;2022-11-11T07:33:13;9.70;99.90
8994;DHT22;4532;50.886;4.700;2022-11-11T07:35:40;9.60;99.90
8994;DHT22;4532;50.886;4.700;2022-11-11T07:38:07;9.60;99.90
8994;DHT22;4532;50.886;4.700;2022-11-11T07:40:37;9.60;99.90
8994;DHT22;4532;50.886;4.700;2022-11-11T07:43:09;9.60;99.90
8994;DHT22;4532;50.886;4.700;2022-11-11T07:45:41;9.70;99.90
8994;DHT22;4532;50.886;4.700;2022-11-11T07:48:08;9.70;99.90
8994;DHT22;4532;50.886;4.700;2022-11-11T07:50:38;9.70;99.90
8994;DHT22;4532;50.886;4.700;2022-11-11T07:53:09;9.70;99.90
8994;DHT22;4532;50.886;4.700;2022-11-11T07:55:39;9.80;99.90
8994;DHT22;4532;50.886;4.700;2022-11-11T07:58:11;9.80;99.90
8994;DHT22;4532;50.886;4.700;2022-11-11T08:00:42;9.80;99.90
8994;DHT22;4532;50.886;4.700;2022-11-11T08:03:17;9.80;99.90
8994;DHT22;4532;50.886;4.700;2022-11-11T08:05:46;9.80;99.90
8994;DHT22;4532;50.886;4.700;2022-11-11T08:08:18;9.90;99.90
8994;DHT22;4532;50.886;4.700;2022-11-11T08:10:57;9.90;99.90
8994;DHT22;4532;50.886;4.700;2022-11-11T08:13:28;9.90;99.90
8994;DHT22;4532;50.886;4.700;2022-11-11T08:16:13;10.00;99.90
8994;DHT22;4532;50.886;4.700;2022-11-11T08:18:43;10.00;99.90
8994;DHT22;4532;50.886;4.700;2022-11-11T08:21:15;10.00;99.90
8994;DHT22;4532;50.886;4.700;2022-11-11T08:23:44;10.10;99.90
8994;DHT22;4532;50.886;4.700;2022-11-11T08:26:34;10.20;99.90
8994;DHT22;4532;50.886;4.700;2022-11-11T08:29:01;10.20;99.90
8994;DHT22;4532;50.886;4.700;2022-11-11T08:31:29;10.20;99.90
8994;DHT22;4532;50.886;4.700;2022-11-11T08:34:03;10.20;99.90
8994;DHT22;4532;50.886;4.700;2022-11-11T08:36:33;10.30;99.90
8994;DHT22;4532;50.886;4.700;2022-11-11T08:39:02;10.30;99.90
8994;DHT22;4532;50.886;4.700;2022-11-11T08:41:34;10.40;99.90
8994;DHT22;4532;50.886;4.700;2022-11-11T08:44:01;10.40;99.90
8994;DHT22;4532;50.886;4.700;2022-11-11T08:46:33;10.50;99.90
8994;DHT22;4532;50.886;4.700;2022-11-11T08:49:05;10.50;99.90
8994;DHT22;4532;50.886;4.700;2022-11-11T08:51:37;10.60;99.90
8994;DHT22;4532;50.886;4.700;2022-11-11T08:54:10;10.60;99.90
8994;DHT22;4532;50.886;4.700;2022-11-11T08:56:38;10.60;99.90
8994;DHT22;4532;50.886;4.700;2022-11-11T08:59:10;10.70;99.90
8994;DHT22;4532;50.886;4.700;2022-11-11T09:01:37;10.70;99.90
8994;DHT22;4532;50.886;4.700;2022-11-11T09:04:05;10.80;99.90
8994;DHT22;4532;50.886;4.700;2022-11-11T09:06:52;10.80;99.90
8994;DHT22;4532;50.886;4.700;2022-11-11T09:09:19;10.90;99.90
8994;DHT22;4532;50.886;4.700;2022-11-11T09:11:46;10.90;99.90
8994;DHT22;4532;50.886;4.700;2022-11-11T09:14:13;11.00;99.90
8994;DHT22;4532;50.886;4.700;2022-11-11T09:16:40;11.00;99.90
8994;DHT22;4532;50.886;4.700;2022-11-11T09:19:07;11.10;99.90
8994;DHT22;4532;50.886;4.700;2022-11-11T09:21:34;11.10;99.90
8994;DHT22;4532;50.886;4.700;2022-11-11T09:24:04;11.20;99.90
8994;DHT22;4532;50.886;4.700;2022-11-11T09:26:34;11.20;99.90
8994;DHT22;4532;50.886;4.700;2022-11-11T09:29:03;11.30;99.90
8994;DHT22;4532;50.886;4.700;2022-11-11T09:31:33;11.30;99.90
8994;DHT22;4532;50.886;4.700;2022-11-11T09:34:12;11.40;99.90
8994;DHT22;4532;50.886;4.700;2022-11-11T09:36:42;11.50;99.90
8994;DHT22;4532;50.886;4.700;2022-11-11T09:39:09;11.50;99.90
8994;DHT22;4532;50.886;4.700;2022-11-11T09:41:47;11.50;99.90
8994;DHT22;4532;50.886;4.700;2022-11-11T09:47:27;11.70;99.90
8994;DHT22;4532;50.886;4.700;2022-11-11T09:50:14;11.70;99.90
8994;DHT22;4532;50.886;4.700;2022-11-11T09:55:38;11.80;99.90
8994;DHT22;4532;50.886;4.700;2022-11-11T09:58:16;11.90;99.90
8994;DHT22;4532;50.886;4.700;2022-11-11T10:00:55;11.90;99.90
8994;DHT22;4532;50.886;4.700;2022-11-11T10:03:24;12.00;99.90
8994;DHT22;4532;50.886;4.700;2022-11-11T10:06:04;12.00;99.90
8994;DHT22;4532;50.886;4.700;2022-11-11T10:08:47;12.10;99.90
8994;DHT22;4532;50.886;4.700;2022-11-11T10:11:26;12.20;99.90
8994;DHT22;4532;50.886;4.700;2022-11-11T10:13:55;12.20;99.90
8994;DHT22;4532;50.886;4.700;2022-11-11T10:19:05;12.40;99.90
8994;DHT22;4532;50.886;4.700;2022-11-11T10:21:51;12.40;99.90
8994;DHT22;4532;50.886;4.700;2022-11-11T10:24:40;12.50;99.90
8994;DHT22;4532;50.886;4.700;2022-11-11T10:27:21;12.60;99.90
8994;DHT22;4532;50.886;4.700;2022-11-11T10:29:51;12.60;99.90
8994;DHT22;4532;50.886;4.700;2022-11-11T10:32:27;12.70;99.90
8994;DHT22;4532;50.886;4.700;2022-11-11T10:35:04;12.80;99.90
8994;DHT22;4532;50.886;4.700;2022-11-11T10:37:42;12.80;99.90
8994;DHT22;4532;50.886;4.700;2022-11-11T10:40:32;12.90;99.90
8994;DHT22;4532;50.886;4.700;2022-11-11T10:43:03;12.90;99.90
8994;DHT22;4532;50.886;4.700;2022-11-11T10:48:17;13.00;99.90
8994;DHT22;4532;50.886;4.700;2022-11-11T10:50:52;13.00;99.90
8994;DHT22;4532;50.886;4.700;2022-11-11T10:56:29;13.20;99.90
8994;DHT22;4532;50.886;4.700;2022-11-11T10:59:23;13.30;99.90
8994;DHT22;4532;50.886;4.700;2022-11-11T11:02:02;13.30;99.90
8994;DHT22;4532;50.886;4.700;2022-11-11T11:04:49;13.30;99.90
8994;DHT22;4532;50.886;4.700;2022-11-11T11:07:27;13.40;99.90
8994;DHT22;4532;50.886;4.700;2022-11-11T11:10:02;13.40;99.90
8994;DHT22;4532;50.886;4.700;2022-11-11T11:12:57;13.50;99.90
8994;DHT22;4532;50.886;4.700;2022-11-11T11:15:30;13.60;99.90
8994;DHT22;4532;50.886;4.700;2022-11-11T11:18:11;13.60;99.90
8994;DHT22;4532;50.886;4.700;2022-11-11T11:20:58;13.70;99.90
8994;DHT22;4532;50.886;4.700;2022-11-11T11:23:41;13.70;99.90
8994;DHT22;4532;50.886;4.700;2022-11-11T11:26:12;13.80;99.90
8994;DHT22;4532;50.886;4.700;2022-11-11T11:28:59;13.80;99.90
8994;DHT22;4532;50.886;4.700;2022-11-11T11:31:42;13.90;99.90
8994;DHT22;4532;50.886;4.700;2022-11-11T11:34:10;14.00;99.90
8994;DHT22;4532;50.886;4.700;2022-11-11T11:36:40;14.00;99.90
8994;DHT22;4532;50.886;4.700;2022-11-11T11:39:07;14.00;99.90
8994;DHT22;4532;50.886;4.700;2022-11-11T11:44:03;14.10;99.90
8994;DHT22;4532;50.886;4.700;2022-11-11T11:46:54;14.10;99.90
8994;DHT22;4532;50.886;4.700;2022-11-11T11:55:31;14.30;99.90
8994;DHT22;4532;50.886;4.700;2022-11-11T12:01:18;14.30;99.90
8994;DHT22;4532;50.886;4.700;2022-11-11T12:06:39;14.40;99.90
8994;DHT22;4532;50.886;4.700;2022-11-11T12:09:28;14.40;99.90
8994;DHT22;4532;50.886;4.700;2022-11-11T12:12:21;14.50;99.90
8994;DHT22;4532;50.886;4.700;2022-11-11T12:17:43;14.60;99.90
8994;DHT22;4532;50.886;4.700;2022-11-11T12:26:06;14.80;99.90
8994;DHT22;4532;50.886;4.700;2022-11-11T12:36:33;14.90;99.90
8994;DHT22;4532;50.886;4.700;2022-11-11T12:50:19;15.20;99.90
8994;DHT22;4532;50.886;4.700;2022-11-11T12:56:01;15.30;99.90
8994;DHT22;4532;50.886;4.700;2022-11-11T12:58:41;15.40;99.90
8994;DHT22;4532;50.886;4.700;2022-11-11T13:04:33;15.50;99.90
8994;DHT22;4532;50.886;4.700;2022-11-11T13:07:47;15.50;99.90
8994;DHT22;4532;50.886;4.700;2022-11-11T13:10:47;15.60;99.90
8994;DHT22;4532;50.886;4.700;2022-11-11T13:16:09;15.70;99.90
8994;DHT22;4532;50.886;4.700;2022-11-11T13:21:28;15.70;99.90
8994;DHT22;4532;50.886;4.700;2022-11-11T13:23:57;15.80;99.90
8994;DHT22;4532;50.886;4.700;2022-11-11T13:26:40;15.80;99.90
8994;DHT22;4532;50.886;4.700;2022-11-11T13:32:02;15.90;99.90
8994;DHT22;4532;50.886;4.700;2022-11-11T13:34:32;15.90;99.90
8994;DHT22;4532;50.886;4.700;2022-11-11T13:37:03;15.90;99.90
8994;DHT22;4532;50.886;4.700;2022-11-11T13:39:36;16.00;99.90
8994;DHT22;4532;50.886;4.700;2022-11-11T13:42:09;16.00;99.90
8994;DHT22;4532;50.886;4.700;2022-11-11T13:44:52;16.00;99.90
8994;DHT22;4532;50.886;4.700;2022-11-11T13:47:26;16.00;99.90
8994;DHT22;4532;50.886;4.700;2022-11-11T13:50:11;16.10;99.90
8994;DHT22;4532;50.886;4.700;2022-11-11T13:52:55;16.10;99.90
8994;DHT22;4532;50.886;4.700;2022-11-11T13:55:38;16.10;99.90
8994;DHT22;4532;50.886;4.700;2022-11-11T13:58:23;16.10;99.90
8994;DHT22;4532;50.886;4.700;2022-11-11T14:01:00;16.10;99.90
8994;DHT22;4532;50.886;4.700;2022-11-11T14:03:35;16.10;99.90
8994;DHT22;4532;50.886;4.700;2022-11-11T14:08:53;16.10;99.90
8994;DHT22;4532;50.886;4.700;2022-11-11T14:13:52;16.10;99.90
8994;DHT22;4532;50.886;4.700;2022-11-11T14:21:51;16.10;99.90
8994;DHT22;4532;50.886;4.700;2022-11-11T14:24:42;16.10;99.90
8994;DHT22;4532;50.886;4.700;2022-11-11T14:27:16;16.10;99.90
8994;DHT22;4532;50.886;4.700;2022-11-11T14:29:51;16.10;99.90
8994;DHT22;4532;50.886;4.700;2022-11-11T14:41:37;16.00;99.90
8994;DHT22;4532;50.886;4.700;2022-11-11T15:00:03;15.80;99.90
8994;DHT22;4532;50.886;4.700;2022-11-11T15:02:37;15.80;99.90
8994;DHT22;4532;50.886;4.700;2022-11-11T15:05:13;15.80;99.90
8994;DHT22;4532;50.886;4.700;2022-11-11T15:10:20;15.70;99.90
8994;DHT22;4532;50.886;4.700;2022-11-11T15:18:36;15.60;99.90
8994;DHT22;4532;50.886;4.700;2022-11-11T15:21:27;15.60;99.90
8994;DHT22;4532;50.886;4.700;2022-11-11T15:27:01;15.50;99.90
8994;DHT22;4532;50.886;4.700;2022-11-11T15:35:18;15.40;99.90
8994;DHT22;4532;50.886;4.700;2022-11-11T15:37:57;15.30;99.90
8994;DHT22;4532;50.886;4.700;2022-11-11T15:40:47;15.30;99.90
8994;DHT22;4532;50.886;4.700;2022-11-11T15:43:24;15.20;99.90
8994;DHT22;4532;50.886;4.700;2022-11-11T15:45:57;15.20;99.90
8994;DHT22;4532;50.886;4.700;2022-11-11T15:48:34;15.10;99.90
8994;DHT22;4532;50.886;4.700;2022-11-11T15:53:48;15.00;99.90
8994;DHT22;4532;50.886;4.700;2022-11-11T15:56:31;15.00;99.90
8994;DHT22;4532;50.886;4.700;2022-11-11T15:59:24;14.90;99.90
8994;DHT22;4532;50.886;4.700;2022-11-11T16:01:54;14.80;99.90
8994;DHT22;4532;50.886;4.700;2022-11-11T16:04:22;14.80;99.90
8994;DHT22;4532;50.886;4.700;2022-11-11T16:07:20;14.80;99.90
8994;DHT22;4532;50.886;4.700;2022-11-11T16:09:48;14.70;99.90
8994;DHT22;4532;50.886;4.700;2022-11-11T16:12:28;14.70;99.90
8994;DHT22;4532;50.886;4.700;2022-11-11T16:15:02;14.60;99.90
8994;DHT22;4532;50.886;4.700;2022-11-11T16:17:39;14.60;99.90
8994;DHT22;4532;50.886;4.700;2022-11-11T16:20:14;14.50;99.90
8994;DHT22;4532;50.886;4.700;2022-11-11T16:22:45;14.50;99.90
8994;DHT22;4532;50.886;4.700;2022-11-11T16:25:19;14.40;99.90
8994;DHT22;4532;50.886;4.700;2022-11-11T16:27:51;14.40;99.90
8994;DHT22;4532;50.886;4.700;2022-11-11T16:30:32;14.40;99.90
8994;DHT22;4532;50.886;4.700;2022-11-11T16:33:00;14.30;99.90
8994;DHT22;4532;50.886;4.700;2022-11-11T16:35:38;14.30;99.90
8994;DHT22;4532;50.886;4.700;2022-11-11T16:38:06;14.30;99.90
8994;DHT22;4532;50.886;4.700;2022-11-11T16:40:36;14.20;99.90
8994;DHT22;4532;50.886;4.700;2022-11-11T16:43:17;14.20;99.90
8994;DHT22;4532;50.886;4.700;2022-11-11T16:45:56;14.20;99.90
8994;DHT22;4532;50.886;4.700;2022-11-11T16:51:11;14.10;99.90
8994;DHT22;4532;50.886;4.700;2022-11-11T16:54:05;14.00;99.90
8994;DHT22;4532;50.886;4.700;2022-11-11T16:56:41;14.00;99.90
8994;DHT22;4532;50.886;4.700;2022-11-11T17:02:03;13.90;99.90
8994;DHT22;4532;50.886;4.700;2022-11-11T17:04:47;13.80;99.90
8994;DHT22;4532;50.886;4.700;2022-11-11T17:07:30;13.80;99.90
8994;DHT22;4532;50.886;4.700;2022-11-11T17:12:35;13.70;99.90
8994;DHT22;4532;50.886;4.700;2022-11-11T17:15:07;13.60;99.90
8994;DHT22;4532;50.886;4.700;2022-11-11T17:17:38;13.60;99.90
8994;DHT22;4532;50.886;4.700;2022-11-11T17:20:13;13.60;99.90
8994;DHT22;4532;50.886;4.700;2022-11-11T17:25:16;13.50;99.90
8994;DHT22;4532;50.886;4.700;2022-11-11T17:27:45;13.50;99.90
8994;DHT22;4532;50.886;4.700;2022-11-11T17:30:13;13.40;99.90
8994;DHT22;4532;50.886;4.700;2022-11-11T17:32:40;13.30;99.90
8994;DHT22;4532;50.886;4.700;2022-11-11T17:35:10;13.30;99.90
8994;DHT22;4532;50.886;4.700;2022-11-11T17:37:40;13.30;99.90
8994;DHT22;4532;50.886;4.700;2022-11-11T17:40:10;13.30;99.90
8994;DHT22;4532;50.886;4.700;2022-11-11T17:42:39;13.20;99.90
8994;DHT22;4532;50.886;4.700;2022-11-11T17:45:09;13.20;99.90
8994;DHT22;4532;50.886;4.700;2022-11-11T17:47:38;13.10;99.90
8994;DHT22;4532;50.886;4.700;2022-11-11T17:50:09;13.10;99.90
8994;DHT22;4532;50.886;4.700;2022-11-11T17:52:37;13.10;99.90
8994;DHT22;4532;50.886;4.700;2022-11-11T17:55:04;13.00;99.90
8994;DHT22;4532;50.886;4.700;2022-11-11T17:57:31;12.90;99.90
8994;DHT22;4532;50.886;4.700;2022-11-11T17:59:58;12.90;99.90
8994;DHT22;4532;50.886;4.700;2022-11-11T18:02:26;12.90;99.90
8994;DHT22;4532;50.886;4.700;2022-11-11T18:04:57;12.80;99.90
8994;DHT22;4532;50.886;4.700;2022-11-11T18:07:27;12.80;99.90
8994;DHT22;4532;50.886;4.700;2022-11-11T18:09:54;12.70;99.90
8994;DHT22;4532;50.886;4.700;2022-11-11T18:12:21;12.60;99.90
8994;DHT22;4532;50.886;4.700;2022-11-11T18:14:48;12.60;99.90
8994;DHT22;4532;50.886;4.700;2022-11-11T18:17:15;12.60;99.90
8994;DHT22;4532;50.886;4.700;2022-11-11T18:19:43;12.50;99.90
8994;DHT22;4532;50.886;4.700;2022-11-11T18:22:12;12.50;99.90
8994;DHT22;4532;50.886;4.700;2022-11-11T18:24:39;12.40;99.90
8994;DHT22;4532;50.886;4.700;2022-11-11T18:27:07;12.40;99.90
8994;DHT22;4532;50.886;4.700;2022-11-11T18:29:37;12.40;99.90
8994;DHT22;4532;50.886;4.700;2022-11-11T18:32:11;12.30;99.90
8994;DHT22;4532;50.886;4.700;2022-11-11T18:34:40;12.30;99.90
8994;DHT22;4532;50.886;4.700;2022-11-11T18:37:10;12.30;99.90
8994;DHT22;4532;50.886;4.700;2022-11-11T18:39:37;12.20;99.90
8994;DHT22;4532;50.886;4.700;2022-11-11T18:42:06;12.20;99.90
8994;DHT22;4532;50.886;4.700;2022-11-11T18:44:33;12.20;99.90
8994;DHT22;4532;50.886;4.700;2022-11-11T18:47:03;12.10;99.90
8994;DHT22;4532;50.886;4.700;2022-11-11T18:49:30;12.10;99.90
8994;DHT22;4532;50.886;4.700;2022-11-11T18:51:57;12.10;99.90
8994;DHT22;4532;50.886;4.700;2022-11-11T18:54:25;12.00;99.90
8994;DHT22;4532;50.886;4.700;2022-11-11T18:56:58;12.00;99.90
8994;DHT22;4532;50.886;4.700;2022-11-11T18:59:28;12.00;99.90
8994;DHT22;4532;50.886;4.700;2022-11-11T19:01:55;11.90;99.90
8994;DHT22;4532;50.886;4.700;2022-11-11T19:04:27;11.90;99.90
8994;DHT22;4532;50.886;4.700;2022-11-11T19:06:56;11.80;99.90
8994;DHT22;4532;50.886;4.700;2022-11-11T19:09:28;11.80;99.90
8994;DHT22;4532;50.886;4.700;2022-11-11T19:11:55;11.80;99.90
8994;DHT22;4532;50.886;4.700;2022-11-11T19:14:25;11.70;99.90